Terminal Aerodrome Forecast
Issued by NWS

Current Version | Previous Version | Graphics & Text | Print | Product List | Glossary On
Versions: 1 2 3 4 5 6 7 8 9 10 11 12 13 14 15 16 17 18 19 20
000
FTUS41 KILN 211134
TAFLUK
TAF
KLUK 211134Z 2112/2212 00000KT 2SM BR SCT002
      TEMPO 2112/2113 1/4SM FG VV002
     FM211300 00000KT 5SM BR SKC
     FM211400 20007KT P6SM FEW045
     FM220000 00000KT P6SM SCT250
     FM220600 00000KT 4SM BR SCT250=

USA.gov is the U.S. government's official web portal to all federal, state and local government web resources and services.